Time;durP1;ratioP1;P1;durP2;ratioP2;P2;SDS_P1;SDS_P2;PMS_P1;PMS_P2;Temp;Humidity;BMP_temperature;BMP_pressure;BME280_temperature;BME280_humidity;BME280_pressure;Samples;Min_cycle;Max_cycle;Signal;HPM_P1;HPM_P2
2021/05/07 00:00:39;;;;;;;5.38;4.70;;;;;;;;;;5031027;28;20179;-77
2021/05/07 00:03:05;;;;;;;6.28;3.80;;;;;;;;;;5036024;28;20197;-77
2021/05/07 00:05:31;;;;;;;5.20;4.45;;;;;;;;;;5032479;28;20639;-76
2021/05/07 00:07:58;;;;;;;4.65;4.20;;;;;;;;;;5032264;28;20182;-77
2021/05/07 00:10:25;;;;;;;4.68;4.18;;;;;;;;;;5026250;28;20261;-77
2021/05/07 00:12:51;;;;;;;5.40;4.03;;;;;;;;;;5042938;28;20257;-77
2021/05/07 00:15:18;;;;;;;5.80;4.18;;;;;;;;;;5060744;28;20181;-77
2021/05/07 00:17:44;;;;;;;7.63;4.60;;;;;;;;;;5035194;28;20194;-77
2021/05/07 00:20:11;;;;;;;7.10;4.70;;;;;;;;;;5041560;28;20185;-77
2021/05/07 00:22:38;;;;;;;6.63;4.50;;;;;;;;;;5038412;28;20182;-77
2021/05/07 00:25:05;;;;;;;5.50;4.35;;;;;;;;;;5047705;28;20205;-77
2021/05/07 00:27:30;;;;;;;6.57;3.65;;;;;;;;;;5046075;28;20284;-77
2021/05/07 00:29:56;;;;;;;5.87;4.07;;;;;;;;;;5037916;28;20671;-77
2021/05/07 00:32:22;;;;;;;6.05;4.63;;;;;;;;;;5039981;28;20441;-76
2021/05/07 00:34:48;;;;;;;6.95;4.97;;;;;;;;;;5042275;28;20354;-76
2021/05/07 00:37:14;;;;;;;7.20;4.68;;;;;;;;;;5044042;28;20208;-76
2021/05/07 00:39:40;;;;;;;4.83;3.80;;;;;;;;;;5032211;28;20179;-76
2021/05/07 00:42:09;;;;;;;8.60;5.97;;;;;;;;;;5038147;28;20440;-76
2021/05/07 00:44:35;;;;;;;6.43;3.67;;;;;;;;;;5037633;28;20214;-77
2021/05/07 00:47:04;;;;;;;7.38;5.03;;;;;;;;;;5043794;28;20185;-77
2021/05/07 00:49:37;;;;;;;8.55;4.72;;;;;;;;;;5033586;28;20173;-77
2021/05/07 00:52:04;;;;;;;6.60;5.00;;;;;;;;;;5039497;28;20190;-77
2021/05/07 00:54:33;;;;;;;6.07;4.03;;;;;;;;;;5034172;28;20584;-77
2021/05/07 00:56:59;;;;;;;8.50;4.53;;;;;;;;;;5044427;28;20265;-76
2021/05/07 00:59:25;;;;;;;5.60;4.57;;;;;;;;;;5043751;28;20284;-76
2021/05/07 01:01:52;;;;;;;5.55;4.65;;;;;;;;;;5043378;28;20615;-76
2021/05/07 01:04:18;;;;;;;9.00;5.00;;;;;;;;;;5032634;28;20269;-76
2021/05/07 01:06:44;;;;;;;5.32;4.05;;;;;;;;;;5043735;28;20190;-76
2021/05/07 01:09:10;;;;;;;7.07;4.40;;;;;;;;;;5035274;28;20174;-76
2021/05/07 01:11:36;;;;;;;6.47;4.93;;;;;;;;;;5037561;28;20210;-79
2021/05/07 01:14:02;;;;;;;6.97;5.13;;;;;;;;;;5035526;28;20238;-79
2021/05/07 01:16:32;;;;;;;7.05;4.45;;;;;;;;;;5034819;28;20255;-79
2021/05/07 01:18:57;;;;;;;6.28;5.05;;;;;;;;;;5031540;28;20190;-78
2021/05/07 01:21:23;;;;;;;5.43;3.88;;;;;;;;;;5061051;28;20212;-79
2021/05/07 01:23:49;;;;;;;6.22;4.78;;;;;;;;;;5041628;28;20531;-79
2021/05/07 01:26:15;;;;;;;6.22;4.30;;;;;;;;;;5040270;28;20205;-79
2021/05/07 01:28:41;;;;;;;6.10;4.40;;;;;;;;;;5042670;28;20428;-79
2021/05/07 01:31:07;;;;;;;5.80;4.63;;;;;;;;;;5042794;28;20213;-79
2021/05/07 01:33:35;;;;;;;7.03;4.30;;;;;;;;;;5044413;28;20181;-78
2021/05/07 01:36:01;;;;;;;6.13;4.20;;;;;;;;;;5043139;28;20166;-78
2021/05/07 01:38:27;;;;;;;5.80;4.60;;;;;;;;;;5039665;28;20316;-79
2021/05/07 01:40:53;;;;;;;5.75;5.18;;;;;;;;;;5031597;28;20197;-79
2021/05/07 01:43:19;;;;;;;7.45;4.80;;;;;;;;;;5046857;28;20185;-79
2021/05/07 01:45:46;;;;;;;4.75;4.25;;;;;;;;;;5042114;28;20216;-79
2021/05/07 01:48:13;;;;;;;7.38;4.95;;;;;;;;;;5043118;28;20185;-79
2021/05/07 01:50:40;;;;;;;5.22;4.35;;;;;;;;;;5057929;28;20198;-80
2021/05/07 01:53:07;;;;;;;6.10;4.75;;;;;;;;;;5042042;28;20213;-78
2021/05/07 01:55:35;;;;;;;8.40;5.28;;;;;;;;;;5049808;28;20189;-78
2021/05/07 01:58:03;;;;;;;7.25;4.93;;;;;;;;;;5031762;28;20175;-79
2021/05/07 02:00:29;;;;;;;5.82;4.40;;;;;;;;;;5040038;28;20186;-78
2021/05/07 02:02:56;;;;;;;6.95;5.70;;;;;;;;;;5037082;28;20187;-79
2021/05/07 02:05:23;;;;;;;10.60;5.82;;;;;;;;;;5033296;28;20248;-78
2021/05/07 02:07:49;;;;;;;7.70;5.75;;;;;;;;;;5031474;28;20197;-79
2021/05/07 02:10:20;;;;;;;7.47;5.55;;;;;;;;;;5039139;28;20205;-78
2021/05/07 02:12:46;;;;;;;5.93;5.00;;;;;;;;;;5040873;28;20208;-79
2021/05/07 02:15:13;;;;;;;7.90;5.97;;;;;;;;;;5033842;28;20181;-80
2021/05/07 02:17:40;;;;;;;6.93;5.55;;;;;;;;;;5041968;28;20245;-78
2021/05/07 02:20:06;;;;;;;7.68;5.90;;;;;;;;;;5040790;28;20181;-78
2021/05/07 02:22:33;;;;;;;6.80;5.97;;;;;;;;;;5031693;28;20730;-79
2021/05/07 02:24:59;;;;;;;5.72;5.15;;;;;;;;;;5041267;28;20213;-78
2021/05/07 02:27:25;;;;;;;8.15;5.90;;;;;;;;;;5044220;28;20178;-78
2021/05/07 02:29:51;;;;;;;7.90;5.53;;;;;;;;;;5039420;28;20213;-79
2021/05/07 02:32:17;;;;;;;10.30;7.13;;;;;;;;;;5042049;28;20190;-79
2021/05/07 02:34:43;;;;;;;6.47;5.50;;;;;;;;;;5041106;28;20182;-78
2021/05/07 02:37:09;;;;;;;6.80;5.40;;;;;;;;;;5042490;28;20242;-78
2021/05/07 02:39:35;;;;;;;7.38;6.55;;;;;;;;;;5042657;28;20239;-79
2021/05/07 02:42:01;;;;;;;8.73;5.90;;;;;;;;;;5042454;28;20352;-78
2021/05/07 02:44:27;;;;;;;8.35;5.95;;;;;;;;;;5035951;28;20218;-79
2021/05/07 02:46:53;;;;;;;7.63;5.90;;;;;;;;;;5038975;28;20583;-78
2021/05/07 02:49:19;;;;;;;7.20;5.47;;;;;;;;;;5029617;28;20185;-78
2021/05/07 02:51:45;;;;;;;6.63;5.85;;;;;;;;;;5030067;28;20206;-78
2021/05/07 02:54:11;;;;;;;8.57;5.97;;;;;;;;;;5033012;28;20518;-78
2021/05/07 02:56:37;;;;;;;6.15;5.47;;;;;;;;;;5035467;28;20209;-78
2021/05/07 02:59:03;;;;;;;7.03;5.53;;;;;;;;;;5034696;28;20185;-78
2021/05/07 03:01:29;;;;;;;8.93;6.10;;;;;;;;;;5031400;28;20460;-78
2021/05/07 03:03:55;;;;;;;9.35;5.70;;;;;;;;;;5040218;28;20216;-78
2021/05/07 03:06:21;;;;;;;7.27;6.03;;;;;;;;;;5033780;28;20213;-78
2021/05/07 03:08:47;;;;;;;10.20;6.70;;;;;;;;;;5033383;28;20441;-79
2021/05/07 03:11:13;;;;;;;7.60;5.53;;;;;;;;;;5036619;28;20205;-78
2021/05/07 03:13:39;;;;;;;10.00;6.60;;;;;;;;;;5041489;28;20272;-78
2021/05/07 03:16:05;;;;;;;8.47;5.70;;;;;;;;;;5031502;28;20197;-78
2021/05/07 03:18:31;;;;;;;10.25;6.55;;;;;;;;;;5032381;28;20746;-78
2021/05/07 03:20:57;;;;;;;10.48;6.18;;;;;;;;;;5035789;28;20186;-78
2021/05/07 03:23:23;;;;;;;6.28;4.95;;;;;;;;;;5036823;28;20193;-78
2021/05/07 03:25:50;;;;;;;9.15;7.00;;;;;;;;;;5040856;28;20190;-78
2021/05/07 03:28:16;;;;;;;8.07;6.10;;;;;;;;;;5056172;28;20185;-78
2021/05/07 03:30:42;;;;;;;8.40;6.78;;;;;;;;;;5031003;28;20266;-78
2021/05/07 03:33:08;;;;;;;12.00;7.60;;;;;;;;;;5035559;28;20202;-78
2021/05/07 03:35:35;;;;;;;7.35;6.35;;;;;;;;;;5056327;28;20178;-78
2021/05/07 03:38:01;;;;;;;8.15;6.65;;;;;;;;;;5040769;28;20573;-78
2021/05/07 03:40:27;;;;;;;10.13;7.25;;;;;;;;;;5055846;28;20194;-78
2021/05/07 03:42:53;;;;;;;9.82;6.43;;;;;;;;;;5029148;28;20197;-78
2021/05/07 03:45:19;;;;;;;11.32;6.70;;;;;;;;;;5028174;28;20581;-78
2021/05/07 03:47:46;;;;;;;9.07;7.00;;;;;;;;;;5037771;28;20182;-78
2021/05/07 03:50:12;;;;;;;12.20;6.55;;;;;;;;;;5036562;28;20297;-78
2021/05/07 03:52:38;;;;;;;8.00;6.05;;;;;;;;;;5044747;28;20204;-78
2021/05/07 03:55:08;;;;;;;8.18;6.03;;;;;;;;;;5033966;28;20664;-78
2021/05/07 03:57:34;;;;;;;10.57;8.10;;;;;;;;;;5041898;28;20587;-78
2021/05/07 04:00:00;;;;;;;9.88;6.68;;;;;;;;;;5039014;28;20197;-79
2021/05/07 04:02:26;;;;;;;7.97;6.70;;;;;;;;;;5038790;28;20212;-78
2021/05/07 04:04:54;;;;;;;12.50;7.28;;;;;;;;;;5036347;28;20240;-78
2021/05/07 04:07:20;;;;;;;11.30;8.07;;;;;;;;;;5058889;28;20196;-77
2021/05/07 04:13:29;;;;;;;9.95;8.02;;;;;;;;;;5046942;28;20180;-78
2021/05/07 04:15:08;;;;;;;9.80;7.72;;;;;;;;;;5039508;28;20264;-77
2021/05/07 04:17:34;;;;;;;10.57;8.32;;;;;;;;;;5038555;28;20590;-77
2021/05/07 04:20:00;;;;;;;10.70;7.50;;;;;;;;;;5044513;28;20190;-78
2021/05/07 04:22:26;;;;;;;9.50;7.57;;;;;;;;;;5037363;28;20178;-78
2021/05/07 04:24:52;;;;;;;11.20;7.93;;;;;;;;;;5031812;28;20208;-79
2021/05/07 04:27:18;;;;;;;8.57;7.65;;;;;;;;;;5046137;28;20178;-78
2021/05/07 04:29:44;;;;;;;11.30;8.32;;;;;;;;;;5039450;28;20186;-77
2021/05/07 04:32:10;;;;;;;9.45;7.40;;;;;;;;;;5032542;28;20224;-78
2021/05/07 04:34:36;;;;;;;9.90;6.78;;;;;;;;;;5033414;28;20654;-78
2021/05/07 04:37:02;;;;;;;10.73;7.80;;;;;;;;;;5033278;28;20182;-76
2021/05/07 04:39:28;;;;;;;10.23;7.45;;;;;;;;;;5044609;28;20243;-77
2021/05/07 04:41:54;;;;;;;12.38;9.02;;;;;;;;;;5038242;28;20179;-78
2021/05/07 04:44:20;;;;;;;12.02;7.97;;;;;;;;;;5034852;28;20229;-78
2021/05/07 04:46:46;;;;;;;11.32;8.20;;;;;;;;;;5034247;28;20189;-78
2021/05/07 04:49:12;;;;;;;15.68;9.13;;;;;;;;;;5058858;28;20197;-78
2021/05/07 04:51:38;;;;;;;15.05;9.88;;;;;;;;;;5034207;28;20201;-77
2021/05/07 04:54:04;;;;;;;12.27;9.00;;;;;;;;;;5037207;28;20187;-78
2021/05/07 04:56:30;;;;;;;12.63;9.55;;;;;;;;;;5040427;28;20213;-77
2021/05/07 04:58:56;;;;;;;9.50;7.80;;;;;;;;;;5039934;28;20232;-78
2021/05/07 05:01:22;;;;;;;11.85;8.40;;;;;;;;;;5058952;28;20182;-78
2021/05/07 05:03:48;;;;;;;11.45;8.23;;;;;;;;;;5032808;28;21151;-78
2021/05/07 05:06:16;;;;;;;11.38;8.35;;;;;;;;;;5036296;28;20186;-78
2021/05/07 05:08:42;;;;;;;12.98;7.13;;;;;;;;;;5035165;28;20196;-78
2021/05/07 05:11:08;;;;;;;11.05;7.50;;;;;;;;;;5034287;28;20265;-78
2021/05/07 05:13:34;;;;;;;11.55;8.23;;;;;;;;;;5027811;28;20209;-77
2021/05/07 05:16:00;;;;;;;12.00;8.90;;;;;;;;;;5048791;28;20182;-77
2021/05/07 05:18:30;;;;;;;10.57;8.02;;;;;;;;;;5040530;28;20186;-77
2021/05/07 05:20:59;;;;;;;10.25;8.40;;;;;;;;;;5041136;28;20196;-77
2021/05/07 05:23:25;;;;;;;9.80;8.20;;;;;;;;;;5036156;28;20182;-77
2021/05/07 05:25:51;;;;;;;11.40;8.32;;;;;;;;;;5034405;28;20197;-77
2021/05/07 05:28:17;;;;;;;10.32;7.78;;;;;;;;;;5031858;28;20189;-78
2021/05/07 05:30:43;;;;;;;10.55;7.90;;;;;;;;;;5031000;28;20198;-77
2021/05/07 05:33:09;;;;;;;10.63;7.85;;;;;;;;;;5040359;28;21363;-77
2021/05/07 05:35:36;;;;;;;11.55;8.60;;;;;;;;;;5036121;28;20178;-78
2021/05/07 05:38:02;;;;;;;9.57;7.97;;;;;;;;;;5041243;28;20189;-78
2021/05/07 05:40:28;;;;;;;9.68;7.30;;;;;;;;;;5034972;28;20200;-78
2021/05/07 05:42:54;;;;;;;12.23;7.22;;;;;;;;;;5039379;28;20186;-76
2021/05/07 05:45:22;;;;;;;8.97;7.10;;;;;;;;;;5034444;28;20373;-77
2021/05/07 05:47:48;;;;;;;9.98;8.38;;;;;;;;;;5034638;28;20445;-76
2021/05/07 05:50:14;;;;;;;13.35;8.27;;;;;;;;;;5056279;28;20213;-76
2021/05/07 05:52:40;;;;;;;10.20;7.95;;;;;;;;;;5040939;28;20719;-77
2021/05/07 05:55:07;;;;;;;9.52;7.85;;;;;;;;;;5029260;28;20527;-77
2021/05/07 05:57:33;;;;;;;13.95;9.23;;;;;;;;;;5037408;28;20178;-77
2021/05/07 05:59:59;;;;;;;13.35;7.75;;;;;;;;;;5031558;28;20206;-76
2021/05/07 06:02:25;;;;;;;10.00;6.70;;;;;;;;;;5035920;28;20640;-77
2021/05/07 06:04:51;;;;;;;11.93;7.22;;;;;;;;;;5029138;28;20201;-78
2021/05/07 06:07:17;;;;;;;8.32;7.20;;;;;;;;;;5034791;28;20182;-77
2021/05/07 06:09:43;;;;;;;12.50;7.40;;;;;;;;;;5029860;28;20170;-78
2021/05/07 06:12:09;;;;;;;13.48;7.63;;;;;;;;;;5036358;28;20208;-78
2021/05/07 06:14:36;;;;;;;15.35;8.32;;;;;;;;;;5054609;28;20194;-77
2021/05/07 06:17:02;;;;;;;9.60;6.97;;;;;;;;;;5030260;28;20209;-78
2021/05/07 06:19:28;;;;;;;9.05;7.15;;;;;;;;;;5037673;28;20206;-79
2021/05/07 06:21:54;;;;;;;10.27;8.02;;;;;;;;;;5040178;28;20189;-78
2021/05/07 06:24:20;;;;;;;13.55;8.50;;;;;;;;;;5029067;28;20190;-80
2021/05/07 06:26:46;;;;;;;12.93;7.80;;;;;;;;;;5036458;28;20269;-78
2021/05/07 06:29:12;;;;;;;9.23;7.20;;;;;;;;;;5036544;28;20190;-78
2021/05/07 06:31:38;;;;;;;10.43;6.80;;;;;;;;;;5041798;28;20495;-78
2021/05/07 06:34:04;;;;;;;11.30;7.27;;;;;;;;;;5057586;28;20520;-79
2021/05/07 06:36:30;;;;;;;8.93;6.82;;;;;;;;;;5037374;28;20413;-79
2021/05/07 06:38:56;;;;;;;8.83;6.90;;;;;;;;;;5029946;28;20182;-78
2021/05/07 06:41:22;;;;;;;10.30;6.05;;;;;;;;;;5038336;28;20468;-79
2021/05/07 06:43:48;;;;;;;9.43;6.80;;;;;;;;;;5037864;28;20214;-78
2021/05/07 06:46:14;;;;;;;8.05;6.15;;;;;;;;;;5032886;28;20233;-79
2021/05/07 06:48:44;;;;;;;9.75;7.03;;;;;;;;;;5032331;28;20175;-79
2021/05/07 06:51:10;;;;;;;8.75;5.88;;;;;;;;;;5032987;28;20210;-79
2021/05/07 06:53:37;;;;;;;15.95;7.00;;;;;;;;;;5039940;28;20558;-79
2021/05/07 06:56:03;;;;;;;6.22;5.30;;;;;;;;;;5037263;28;20216;-79
2021/05/07 06:58:30;;;;;;;12.02;4.93;;;;;;;;;;5028506;28;20596;-78
2021/05/07 07:00:57;;;;;;;6.95;5.50;;;;;;;;;;5033050;28;20190;-78
2021/05/07 07:03:23;;;;;;;7.35;5.60;;;;;;;;;;5054142;28;20196;-79
2021/05/07 07:05:49;;;;;;;9.90;5.20;;;;;;;;;;5031316;28;20186;-77
2021/05/07 07:08:15;;;;;;;10.97;5.20;;;;;;;;;;5034051;28;20185;-78
2021/05/07 07:10:41;;;;;;;9.97;6.20;;;;;;;;;;5030623;28;20514;-78
2021/05/07 07:13:06;;;;;;;9.37;5.80;;;;;;;;;;5054249;28;20452;-78
2021/05/07 07:15:32;;;;;;;8.73;5.40;;;;;;;;;;5041142;28;20412;-78
2021/05/07 07:17:58;;;;;;;7.30;5.75;;;;;;;;;;5040316;28;20850;-77
2021/05/07 07:20:24;;;;;;;8.38;5.82;;;;;;;;;;5040011;28;20194;-80
2021/05/07 07:22:50;;;;;;;9.30;6.95;;;;;;;;;;5039445;28;20185;-77
2021/05/07 07:25:16;;;;;;;8.57;6.30;;;;;;;;;;5040790;28;20185;-77
2021/05/07 07:27:42;;;;;;;13.97;6.90;;;;;;;;;;5032947;28;20193;-77
2021/05/07 07:30:08;;;;;;;10.63;7.90;;;;;;;;;;5040893;28;20506;-75
2021/05/07 07:32:34;;;;;;;9.63;5.80;;;;;;;;;;5052068;28;20188;-75
2021/05/07 07:35:03;;;;;;;9.30;6.32;;;;;;;;;;5032349;28;20182;-75
2021/05/07 07:37:29;;;;;;;9.20;6.85;;;;;;;;;;5043690;28;20174;-75
2021/05/07 07:39:55;;;;;;;9.05;7.25;;;;;;;;;;5033707;28;20216;-75
2021/05/07 07:42:21;;;;;;;6.72;6.03;;;;;;;;;;5045813;28;20174;-75
2021/05/07 07:44:47;;;;;;;13.53;6.60;;;;;;;;;;5038442;28;20226;-74
2021/05/07 07:47:13;;;;;;;7.03;5.70;;;;;;;;;;5039193;28;20504;-77
2021/05/07 07:49:38;;;;;;;11.98;7.00;;;;;;;;;;5040358;28;20182;-75
2021/05/07 07:52:08;;;;;;;8.50;4.90;;;;;;;;;;5043762;28;20232;-75
2021/05/07 07:54:34;;;;;;;9.80;6.13;;;;;;;;;;5041335;28;20425;-76
2021/05/07 07:57:00;;;;;;;9.77;5.40;;;;;;;;;;5051092;28;20176;-76
2021/05/07 07:59:26;;;;;;;13.55;5.80;;;;;;;;;;5051553;28;20478;-74
2021/05/07 08:01:51;;;;;;;6.27;5.37;;;;;;;;;;5032570;28;20249;-76
2021/05/07 08:04:17;;;;;;;6.80;5.10;;;;;;;;;;5046992;28;20480;-77
2021/05/07 08:06:47;;;;;;;6.57;5.00;;;;;;;;;;5054626;28;20180;-77
2021/05/07 08:09:13;;;;;;;9.75;5.07;;;;;;;;;;5044752;28;20428;-75
2021/05/07 08:11:39;;;;;;;8.77;4.65;;;;;;;;;;5040389;28;20280;-76
2021/05/07 08:14:05;;;;;;;9.65;5.03;;;;;;;;;;5034714;28;20190;-77
2021/05/07 08:16:32;;;;;;;10.98;3.92;;;;;;;;;;5030117;28;20185;-77
2021/05/07 08:18:58;;;;;;;5.57;4.38;;;;;;;;;;5038106;28;20282;-77
2021/05/07 08:21:25;;;;;;;6.88;5.07;;;;;;;;;;5047245;28;20662;-79
2021/05/07 08:23:51;;;;;;;9.65;5.00;;;;;;;;;;5043924;28;20205;-78
2021/05/07 08:26:18;;;;;;;10.82;4.60;;;;;;;;;;5043986;28;20194;-77
2021/05/07 08:28:44;;;;;;;10.07;4.72;;;;;;;;;;5040356;28;20193;-77
2021/05/07 08:31:10;;;;;;;7.43;3.35;;;;;;;;;;5043667;28;20206;-78
2021/05/07 08:33:36;;;;;;;8.20;4.30;;;;;;;;;;5042778;28;20193;-76
2021/05/07 08:36:03;;;;;;;3.30;3.00;;;;;;;;;;5033168;28;20543;-80
2021/05/07 08:38:28;;;;;;;7.20;3.47;;;;;;;;;;5038317;28;20233;-77
2021/05/07 08:40:56;;;;;;;3.40;3.10;;;;;;;;;;5034849;28;20190;-77
2021/05/07 08:43:22;;;;;;;11.30;3.75;;;;;;;;;;5043268;28;20193;-78
2021/05/07 08:45:50;;;;;;;5.60;3.75;;;;;;;;;;5043865;28;20229;-77
2021/05/07 08:48:17;;;;;;;7.00;3.50;;;;;;;;;;5037933;28;20240;-77
2021/05/07 08:50:50;;;;;;;6.10;3.85;;;;;;;;;;5037409;28;20663;-79
2021/05/07 08:53:17;;;;;;;5.90;4.63;;;;;;;;;;5033545;28;20182;-78
2021/05/07 08:55:43;;;;;;;8.65;3.53;;;;;;;;;;5034037;28;20233;-78
2021/05/07 08:58:09;;;;;;;5.05;3.10;;;;;;;;;;5030970;28;20241;-78
2021/05/07 09:00:35;;;;;;;5.35;3.25;;;;;;;;;;5040498;28;20181;-78
2021/05/07 09:03:05;;;;;;;4.32;3.92;;;;;;;;;;5049991;28;20431;-77
2021/05/07 09:05:32;;;;;;;6.38;3.50;;;;;;;;;;5040557;28;20209;-77
2021/05/07 09:07:58;;;;;;;2.97;2.42;;;;;;;;;;5038695;28;20644;-77
2021/05/07 09:10:34;;;;;;;5.20;2.95;;;;;;;;;;5038513;28;20220;-77
2021/05/07 09:13:00;;;;;;;4.70;3.50;;;;;;;;;;5040058;28;20182;-77
2021/05/07 09:15:37;;;;;;;7.57;3.15;;;;;;;;;;5031027;28;20185;-78
2021/05/07 09:18:03;;;;;;;4.57;3.00;;;;;;;;;;5042314;28;20184;-78
2021/05/07 09:20:36;;;;;;;7.00;3.25;;;;;;;;;;5040481;28;20185;-78
2021/05/07 09:23:03;;;;;;;5.45;3.35;;;;;;;;;;5032897;28;20189;-78
2021/05/07 09:25:29;;;;;;;6.88;3.22;;;;;;;;;;5042335;28;20272;-77
2021/05/07 09:28:05;;;;;;;4.53;2.50;;;;;;;;;;5032506;28;20182;-77
2021/05/07 09:30:31;;;;;;;4.80;2.55;;;;;;;;;;5039944;28;20197;-77
2021/05/07 09:32:58;;;;;;;3.58;2.40;;;;;;;;;;5037745;28;20175;-78
2021/05/07 09:35:28;;;;;;;5.13;3.35;;;;;;;;;;5033826;28;20196;-78
2021/05/07 09:37:58;;;;;;;3.20;1.90;;;;;;;;;;5034201;28;20182;-79
2021/05/07 09:40:24;;;;;;;4.25;2.78;;;;;;;;;;5042289;28;20193;-77
2021/05/07 09:42:50;;;;;;;3.83;1.80;;;;;;;;;;5037025;28;20194;-77
2021/05/07 09:45:26;;;;;;;2.70;2.10;;;;;;;;;;5050481;28;20285;-79
2021/05/07 09:47:52;;;;;;;4.43;2.03;;;;;;;;;;5033988;28;20205;-78
2021/05/07 09:50:20;;;;;;;4.18;2.22;;;;;;;;;;5033302;28;20205;-78
2021/05/07 09:52:50;;;;;;;3.78;2.20;;;;;;;;;;5032276;28;20615;-77
2021/05/07 09:55:16;;;;;;;5.10;2.38;;;;;;;;;;5032147;28;20208;-78
2021/05/07 09:57:42;;;;;;;3.55;1.88;;;;;;;;;;5031096;28;20174;-78
2021/05/07 10:00:09;;;;;;;9.63;2.53;;;;;;;;;;5037068;28;20575;-78
2021/05/07 10:02:35;;;;;;;2.03;1.65;;;;;;;;;;5036244;28;20193;-76
2021/05/07 10:05:01;;;;;;;4.15;2.53;;;;;;;;;;5039078;28;20212;-78
2021/05/07 10:07:28;;;;;;;3.38;2.15;;;;;;;;;;5036009;28;20224;-79
2021/05/07 10:10:04;;;;;;;5.30;2.40;;;;;;;;;;5040626;28;20181;-77
2021/05/07 10:12:31;;;;;;;4.25;2.55;;;;;;;;;;5028347;28;20631;-78
2021/05/07 10:14:57;;;;;;;4.00;2.10;;;;;;;;;;5032181;28;20180;-79
2021/05/07 10:17:23;;;;;;;2.65;1.98;;;;;;;;;;5034625;28;20220;-78
2021/05/07 10:19:50;;;;;;;2.47;2.20;;;;;;;;;;5041539;28;20179;-79
2021/05/07 10:22:18;;;;;;;3.47;2.03;;;;;;;;;;5057489;28;20781;-78
2021/05/07 10:24:44;;;;;;;3.13;2.33;;;;;;;;;;5042171;28;20182;-76
2021/05/07 10:27:18;;;;;;;2.25;1.90;;;;;;;;;;5030626;28;20201;-78
2021/05/07 10:29:58;;;;;;;4.13;1.85;;;;;;;;;;5037028;28;20186;-78
2021/05/07 10:32:50;;;;;;;4.93;2.10;;;;;;;;;;5045769;28;20185;-79
2021/05/07 10:35:16;;;;;;;5.78;2.05;;;;;;;;;;5033941;28;20220;-78
2021/05/07 10:37:44;;;;;;;3.55;2.42;;;;;;;;;;5036128;28;20192;-77
2021/05/07 10:40:12;;;;;;;3.67;2.05;;;;;;;;;;5039842;28;20245;-77
2021/05/07 10:42:38;;;;;;;3.42;2.22;;;;;;;;;;5043008;28;20178;-78
2021/05/07 10:45:05;;;;;;;2.33;2.13;;;;;;;;;;5035812;28;20342;-78
2021/05/07 10:47:35;;;;;;;3.60;2.13;;;;;;;;;;5035137;28;20188;-78
2021/05/07 10:50:12;;;;;;;3.55;2.00;;;;;;;;;;5041123;28;20185;-77
2021/05/07 10:52:38;;;;;;;3.80;2.10;;;;;;;;;;5026389;28;20231;-78
2021/05/07 10:55:06;;;;;;;2.08;1.90;;;;;;;;;;5028903;28;20181;-77
2021/05/07 10:57:35;;;;;;;2.33;1.88;;;;;;;;;;5041737;28;20519;-78
2021/05/07 11:00:04;;;;;;;3.17;1.52;;;;;;;;;;5044419;28;20170;-76
2021/05/07 11:02:41;;;;;;;3.22;1.58;;;;;;;;;;5041063;28;20196;-77
2021/05/07 11:05:07;;;;;;;2.40;2.03;;;;;;;;;;5041257;28;20203;-78
2021/05/07 11:07:34;;;;;;;5.63;2.05;;;;;;;;;;5051830;28;20660;-77
2021/05/07 11:10:05;;;;;;;2.70;1.50;;;;;;;;;;5023809;28;20177;-78
2021/05/07 11:12:31;;;;;;;3.92;2.55;;;;;;;;;;5035682;28;20201;-76
2021/05/07 11:14:57;;;;;;;3.30;2.58;;;;;;;;;;5029241;28;20181;-79
2021/05/07 11:17:23;;;;;;;2.85;2.33;;;;;;;;;;5037135;28;20182;-78
2021/05/07 11:19:49;;;;;;;3.63;2.00;;;;;;;;;;5035263;28;20189;-77
2021/05/07 11:22:15;;;;;;;2.90;2.70;;;;;;;;;;5039485;28;20428;-77
2021/05/07 11:24:42;;;;;;;2.50;2.28;;;;;;;;;;5038728;28;20200;-76
2021/05/07 11:27:24;;;;;;;3.58;2.53;;;;;;;;;;5035037;28;20182;-77
2021/05/07 11:29:59;;;;;;;3.15;2.42;;;;;;;;;;5035900;28;20178;-76
2021/05/07 11:32:25;;;;;;;4.22;2.75;;;;;;;;;;5040317;28;20195;-78
2021/05/07 11:34:56;;;;;;;2.28;2.05;;;;;;;;;;5039269;28;20186;-76
2021/05/07 11:37:22;;;;;;;5.00;2.30;;;;;;;;;;5039872;28;20321;-76
2021/05/07 11:39:57;;;;;;;2.80;2.00;;;;;;;;;;5029099;28;20178;-78
2021/05/07 11:42:27;;;;;;;3.15;2.42;;;;;;;;;;5031759;28;20182;-76
2021/05/07 11:44:53;;;;;;;2.15;1.98;;;;;;;;;;5037210;28;20235;-77
2021/05/07 11:47:19;;;;;;;3.40;2.10;;;;;;;;;;5053256;28;20218;-79
2021/05/07 11:49:48;;;;;;;3.83;2.50;;;;;;;;;;5027998;28;20441;-80
2021/05/07 11:52:14;;;;;;;4.43;2.65;;;;;;;;;;5050594;28;20482;-78
2021/05/07 11:54:41;;;;;;;4.93;2.20;;;;;;;;;;5040935;28;20182;-77
2021/05/07 11:57:07;;;;;;;4.40;2.00;;;;;;;;;;5032741;28;20172;-79
2021/05/07 11:59:33;;;;;;;5.25;2.88;;;;;;;;;;5029797;28;20186;-77
2021/05/07 12:02:03;;;;;;;3.28;1.70;;;;;;;;;;5039500;28;20189;-76
2021/05/07 12:04:29;;;;;;;2.88;1.80;;;;;;;;;;5032987;28;20216;-76
2021/05/07 12:06:55;;;;;;;3.08;2.33;;;;;;;;;;5029853;28;20221;-77
2021/05/07 12:09:21;;;;;;;3.65;2.30;;;;;;;;;;5045171;28;20224;-77
2021/05/07 12:11:57;;;;;;;2.80;2.10;;;;;;;;;;5039505;28;20214;-77
2021/05/07 12:14:23;;;;;;;1.70;1.58;;;;;;;;;;5035128;28;20451;-76
2021/05/07 12:16:58;;;;;;;2.03;1.50;;;;;;;;;;5038455;28;20185;-77
2021/05/07 12:19:24;;;;;;;4.47;1.83;;;;;;;;;;5035692;28;20432;-77
2021/05/07 12:21:50;;;;;;;2.80;1.97;;;;;;;;;;5042504;28;20189;-77
2021/05/07 12:24:25;;;;;;;2.88;1.55;;;;;;;;;;5052046;28;20417;-76
2021/05/07 12:26:51;;;;;;;2.15;1.25;;;;;;;;;;5038317;28;20174;-76
2021/05/07 12:29:17;;;;;;;5.85;1.50;;;;;;;;;;5037745;28;20237;-76
2021/05/07 12:31:43;;;;;;;1.63;1.30;;;;;;;;;;5033883;28;20225;-77
2021/05/07 12:34:14;;;;;;;1.73;1.63;;;;;;;;;;5048311;28;20436;-76
2021/05/07 12:36:40;;;;;;;3.78;1.92;;;;;;;;;;5032505;28;20242;-77
2021/05/07 12:39:08;;;;;;;2.47;1.40;;;;;;;;;;5031743;28;20198;-76
2021/05/07 12:41:34;;;;;;;2.60;1.57;;;;;;;;;;5035922;28;20495;-77
2021/05/07 12:44:00;;;;;;;2.80;1.67;;;;;;;;;;5032221;28;20466;-78
2021/05/07 12:46:26;;;;;;;1.97;1.40;;;;;;;;;;5043749;28;20415;-78
2021/05/07 12:48:52;;;;;;;1.60;1.27;;;;;;;;;;5041920;28;20479;-77
2021/05/07 12:51:20;;;;;;;1.87;1.50;;;;;;;;;;5051426;28;20463;-78
2021/05/07 12:53:47;;;;;;;6.03;1.93;;;;;;;;;;5034925;28;20446;-76
2021/05/07 12:56:13;;;;;;;1.97;1.33;;;;;;;;;;5031132;28;20422;-77
2021/05/07 12:58:39;;;;;;;2.23;1.77;;;;;;;;;;5042580;28;20462;-79
2021/05/07 13:01:07;;;;;;;2.20;1.90;;;;;;;;;;5029416;28;20500;-77
2021/05/07 13:03:33;;;;;;;1.30;1.20;;;;;;;;;;5033916;28;20253;-77
2021/05/07 13:05:59;;;;;;;3.20;1.90;;;;;;;;;;5039540;28;20205;-78
2021/05/07 13:08:25;;;;;;;2.57;1.60;;;;;;;;;;5029823;28;20190;-78
2021/05/07 13:10:51;;;;;;;2.70;1.70;;;;;;;;;;5033872;28;20491;-79
2021/05/07 13:13:17;;;;;;;1.35;1.25;;;;;;;;;;5047603;28;20432;-78
2021/05/07 13:15:43;;;;;;;2.03;1.48;;;;;;;;;;5030890;28;20182;-77
2021/05/07 13:18:09;;;;;;;2.27;1.40;;;;;;;;;;5031253;28;20165;-77
2021/05/07 13:20:35;;;;;;;1.98;1.40;;;;;;;;;;5035735;28;20410;-78
2021/05/07 13:23:01;;;;;;;2.30;1.50;;;;;;;;;;5043117;28;20440;-79
2021/05/07 13:25:27;;;;;;;3.33;1.23;;;;;;;;;;5041133;28;20451;-77
2021/05/07 13:27:53;;;;;;;3.03;1.90;;;;;;;;;;5042428;28;20192;-77
2021/05/07 13:30:20;;;;;;;3.80;1.67;;;;;;;;;;5045174;28;20421;-77
2021/05/07 13:32:47;;;;;;;4.83;1.63;;;;;;;;;;5039530;28;20442;-77
2021/05/07 13:35:14;;;;;;;2.35;1.30;;;;;;;;;;5038672;28;20591;-77
2021/05/07 13:37:41;;;;;;;2.25;1.55;;;;;;;;;;5032833;28;20172;-77
2021/05/07 13:40:09;;;;;;;2.33;1.45;;;;;;;;;;5051502;28;20191;-78
2021/05/07 13:42:35;;;;;;;1.48;1.35;;;;;;;;;;5042590;28;20179;-78
2021/05/07 13:45:01;;;;;;;1.70;1.10;;;;;;;;;;5043953;28;20230;-76
2021/05/07 13:47:27;;;;;;;3.28;1.80;;;;;;;;;;5036035;28;20182;-77
2021/05/07 13:49:53;;;;;;;1.90;1.38;;;;;;;;;;5028499;28;20179;-76
2021/05/07 13:52:19;;;;;;;2.17;1.67;;;;;;;;;;5054353;28;20671;-77
2021/05/07 13:54:45;;;;;;;1.97;1.10;;;;;;;;;;5040233;28;20182;-77
2021/05/07 13:57:11;;;;;;;1.90;1.30;;;;;;;;;;5042509;28;20428;-79
2021/05/07 13:59:37;;;;;;;2.65;1.10;;;;;;;;;;5034110;28;20429;-77
2021/05/07 14:02:03;;;;;;;3.10;1.10;;;;;;;;;;5033646;28;20227;-77
2021/05/07 14:04:29;;;;;;;1.30;1.20;;;;;;;;;;5024614;28;20441;-81
2021/05/07 14:06:55;;;;;;;1.13;1.02;;;;;;;;;;5037781;28;20440;-79
2021/05/07 14:09:21;;;;;;;2.90;1.43;;;;;;;;;;5034691;28;20182;-77
2021/05/07 14:11:49;;;;;;;2.30;1.67;;;;;;;;;;5026420;28;20461;-77
2021/05/07 14:14:15;;;;;;;1.65;1.10;;;;;;;;;;5032414;28;20538;-79
2021/05/07 14:16:42;;;;;;;1.40;1.13;;;;;;;;;;5033493;28;20185;-76
2021/05/07 14:19:08;;;;;;;1.38;1.00;;;;;;;;;;5035546;28;20443;-77
2021/05/07 14:21:35;;;;;;;1.80;1.15;;;;;;;;;;5038953;28;20178;-78
2021/05/07 14:24:01;;;;;;;2.35;1.50;;;;;;;;;;5035063;28;20493;-76
2021/05/07 14:26:27;;;;;;;3.13;1.35;;;;;;;;;;5034435;28;20259;-76
2021/05/07 14:28:54;;;;;;;1.58;1.40;;;;;;;;;;5041385;28;20193;-77
2021/05/07 14:31:20;;;;;;;1.95;1.13;;;;;;;;;;5056882;28;20205;-77
2021/05/07 14:33:46;;;;;;;2.85;1.50;;;;;;;;;;5039726;28;20528;-78
2021/05/07 14:36:12;;;;;;;1.77;1.42;;;;;;;;;;5043255;28;20601;-77
2021/05/07 14:38:39;;;;;;;2.28;1.52;;;;;;;;;;5041532;28;20178;-77
2021/05/07 14:41:05;;;;;;;1.30;1.20;;;;;;;;;;5041360;28;20182;-77